This is the latest recevied weather packets stored in our database for station/object K4IR. If no packets are shown the sender has not sent any weather packets the latest 10 day(s).
| Time | Temp. | Humidity | Pressure | Rain* | Wind** | Luminosity | Snow |
|---|---|---|---|---|---|---|---|
| 1787772585 | 30.56° C | 66% | 1017 hPa | 0 mm | - | 161 W/m² | - |
| 1787771983 | 30.56° C | 66% | 1017.3 hPa | 0 mm | - | 148 W/m² | - |
| 1787771384 | 31.11° C | 66% | 1017.6 hPa | 0 mm | - | 274 W/m² | - |
| 1787770778 | 30.56° C | 65% | 1017.8 hPa | 0 mm | - | 572 W/m² | - |
| 1787770177 | 30.56° C | 66% | 1018.1 hPa | 0 mm | - | 160 W/m² | - |
| 1787769577 | 30.56° C | 64% | 1018.4 hPa | 0 mm | - | 566 W/m² | - |
| 1787768975 | 31.67° C | 62% | 1018.5 hPa | 0 mm | - | 642 W/m² | - |
| 1787768373 | 31.11° C | 65% | 1018.5 hPa | 0 mm | - | 771 W/m² | - |
| 1787767769 | 31.67° C | 62% | 1018.7 hPa | 0 mm | - | 798 W/m² | - |
| 1787767168 | 31.11° C | 63% | 1018.7 hPa | 0 mm | - | 738 W/m² | - |
| 1787766568 | 31.11° C | 63% | 1018.5 hPa | 0 mm | - | 790 W/m² | - |
| 1787765967 | 31.67° C | 64% | 1018.7 hPa | 0 mm | - | 850 W/m² | - |
| 1787765366 | 31.11° C | 64% | 1018.9 hPa | 0 mm | - | 860 W/m² | - |
| 1787764765 | 29.44° C | 69% | 1018.8 hPa | 0 mm | - | 921 W/m² | - |
| 1787764162 | 29.44° C | 74% | 1018.9 hPa | 0 mm | - | 318 W/m² | - |
| 1787763559 | 28.89° C | 74% | 1018.9 hPa | 0 mm | - | 259 W/m² | - |
| 1787762955 | 28.89° C | 75% | 1019 hPa | 0 mm | - | 172 W/m² | - |
| 1787762352 | 29.44° C | 72% | 1019 hPa | 0 mm | - | 111 W/m² | - |
| 1787761751 | 30° C | 70% | 1019 hPa | 0 mm | - | 622 W/m² | - |
| 1787761147 | 28.89° C | 73% | 1019.1 hPa | 0 mm | - | 164 W/m² | - |
| 1787760545 | 29.44° C | 71% | 1019.1 hPa | 0 mm | - | 136 W/m² | - |
| 1787759942 | 30.56° C | 66% | 1019.4 hPa | 0 mm | - | 354 W/m² | - |
| 1787759339 | 30.56° C | 66% | 1019.1 hPa | 0 mm | - | 760 W/m² | - |
| 1787758739 | 30° C | 70% | 1019 hPa | 0 mm | - | 278 W/m² | - |
| 1787758139 | 29.44° C | 71% | 1018.9 hPa | 0 mm | - | 185 W/m² | - |
* Rain latest hour (hover to see other rain measurements)
** Current wind speed in m/s (hover to see current wind gust speed)